createdAt,value
2017-02-09T00:00:48.466Z,0
2017-02-09T00:03:00.749Z,0
2017-02-09T00:05:17.753Z,0
2017-02-09T00:07:30.147Z,0
2017-02-09T00:09:42.532Z,0
2017-02-09T00:11:54.818Z,0
2017-02-09T00:14:07.085Z,0
2017-02-09T00:16:19.362Z,0
2017-02-09T00:18:31.680Z,0
2017-02-09T00:20:44.023Z,0
2017-02-09T00:22:56.297Z,0
2017-02-09T00:25:08.756Z,0
2017-02-09T00:27:21.147Z,0
2017-02-09T00:29:33.261Z,0
2017-02-09T00:31:45.631Z,0
2017-02-09T00:33:57.829Z,0
2017-02-09T00:36:10.159Z,0
2017-02-09T00:38:22.491Z,0
2017-02-09T00:40:34.670Z,0
2017-02-09T00:42:41.918Z,0
2017-02-09T00:44:54.266Z,0
2017-02-09T00:47:06.558Z,0
2017-02-09T00:49:18.839Z,0
2017-02-09T00:51:31.055Z,0
2017-02-09T00:53:43.237Z,0
2017-02-09T00:55:55.447Z,0
2017-02-09T00:58:07.719Z,0
2017-02-09T01:00:20.329Z,0
2017-02-09T01:02:32.573Z,0
2017-02-09T01:04:44.862Z,0
2017-02-09T01:06:57.099Z,0
2017-02-09T01:09:09.355Z,0
2017-02-09T01:11:21.678Z,0
2017-02-09T01:13:33.828Z,0
2017-02-09T01:15:46.130Z,0
2017-02-09T01:17:58.332Z,0
2017-02-09T01:20:05.550Z,0
2017-02-09T01:22:17.841Z,0
2017-02-09T01:24:30.170Z,0
2017-02-09T01:26:42.341Z,0
2017-02-09T01:28:54.553Z,0
2017-02-09T01:31:06.832Z,0
2017-02-09T01:33:19.430Z,0
2017-02-09T01:35:32.072Z,0
2017-02-09T01:37:44.467Z,0
2017-02-09T01:39:56.770Z,0
2017-02-09T01:42:09.172Z,0
2017-02-09T01:44:21.540Z,0
2017-02-09T01:46:33.758Z,0
2017-02-09T01:48:46.150Z,0
2017-02-09T01:50:48.508Z,0
2017-02-09T01:53:00.826Z,0
2017-02-09T01:55:13.251Z,0
2017-02-09T01:57:25.430Z,0
2017-02-09T01:59:37.813Z,0
2017-02-09T02:01:49.993Z,0
2017-02-09T02:04:02.192Z,0
2017-02-09T02:06:14.376Z,0
2017-02-09T02:08:27.305Z,0
2017-02-09T02:10:39.793Z,0
2017-02-09T02:12:51.992Z,0
2017-02-09T02:15:04.373Z,0
2017-02-09T02:17:16.750Z,0
2017-02-09T02:19:29.112Z,0
2017-02-09T02:21:41.575Z,0
2017-02-09T02:23:53.721Z,0
2017-02-09T02:26:05.943Z,0
2017-02-09T02:28:18.255Z,0
2017-02-09T02:30:30.377Z,0
2017-02-09T02:32:42.755Z,0
2017-02-09T02:34:55.026Z,0
2017-02-09T02:37:07.411Z,0
2017-02-09T02:39:19.651Z,0
2017-02-09T02:41:31.864Z,0
2017-02-09T02:43:44.875Z,0
2017-02-09T02:45:57.206Z,0
2017-02-09T02:48:09.467Z,0
2017-02-09T02:50:21.695Z,0
2017-02-09T02:52:34.038Z,0
2017-02-09T02:54:46.518Z,0
2017-02-09T02:56:58.920Z,0
2017-02-09T02:59:11.162Z,0
2017-02-09T03:01:23.735Z,0
2017-02-09T03:03:35.984Z,0
2017-02-09T03:05:48.378Z,0
2017-02-09T03:08:00.567Z,0
2017-02-09T03:10:12.697Z,0
2017-02-09T03:12:24.985Z,0
2017-02-09T03:14:37.142Z,0
2017-02-09T03:16:49.427Z,0
2017-02-09T03:19:02.067Z,0
2017-02-09T03:21:09.433Z,0
2017-02-09T03:23:16.824Z,0
2017-02-09T03:25:29.143Z,0
2017-02-09T03:27:41.559Z,0
2017-02-09T03:29:53.818Z,0
2017-02-09T03:32:06.018Z,0
2017-02-09T03:34:13.446Z,0
2017-02-09T03:36:25.728Z,0
2017-02-09T03:38:38.925Z,0
2017-02-09T03:40:51.085Z,0
2017-02-09T03:43:03.310Z,0
2017-02-09T03:45:15.772Z,0
2017-02-09T03:47:28.001Z,0
2017-02-09T03:49:40.478Z,0
2017-02-09T03:52:04.251Z,0
2017-02-09T03:54:16.885Z,0
2017-02-09T03:56:29.341Z,0
2017-02-09T03:58:41.817Z,0
2017-02-09T04:00:54.086Z,0
2017-02-09T04:03:06.234Z,0
2017-02-09T04:05:18.460Z,0
2017-02-09T04:07:30.755Z,0
2017-02-09T04:09:43.038Z,0
2017-02-09T04:11:55.412Z,0
2017-02-09T04:14:07.757Z,0
2017-02-09T04:16:20.210Z,0
2017-02-09T04:18:32.470Z,0
2017-02-09T04:20:44.782Z,0
2017-02-09T04:22:57.171Z,0
2017-02-09T04:25:09.312Z,0
2017-02-09T04:27:21.839Z,0
2017-02-09T04:29:34.324Z,0
2017-02-09T04:31:46.511Z,0
2017-02-09T04:33:58.902Z,0
2017-02-09T04:36:11.219Z,0
2017-02-09T04:38:23.467Z,0
2017-02-09T04:40:30.890Z,0
2017-02-09T04:42:43.085Z,0
2017-02-09T04:44:55.357Z,0
2017-02-09T04:47:07.554Z,0
2017-02-09T04:49:19.888Z,0
2017-02-09T04:51:32.176Z,0
2017-02-09T04:53:44.583Z,0
2017-02-09T04:55:56.902Z,0
2017-02-09T04:58:09.157Z,0
2017-02-09T05:00:21.428Z,0
2017-02-09T05:02:28.816Z,0
2017-02-09T05:04:41.603Z,0
2017-02-09T05:06:54.183Z,0
2017-02-09T05:09:06.594Z,0
2017-02-09T05:11:18.955Z,0
2017-02-09T05:13:31.212Z,0
2017-02-09T05:15:43.518Z,0
2017-02-09T05:17:55.917Z,0
2017-02-09T05:20:03.078Z,0
2017-02-09T05:22:15.427Z,0
2017-02-09T05:24:27.892Z,0
2017-02-09T05:26:40.269Z,0
2017-02-09T05:28:52.664Z,0
2017-02-09T05:31:05.030Z,0
2017-02-09T05:33:17.405Z,0
2017-02-09T05:35:29.923Z,0
2017-02-09T05:37:42.315Z,0
2017-02-09T05:39:55.275Z,0
2017-02-09T05:42:08.211Z,0
2017-02-09T05:44:20.461Z,0
2017-02-09T05:46:32.831Z,0
2017-02-09T05:48:45.004Z,0
2017-02-09T05:50:57.460Z,0
2017-02-09T05:53:09.680Z,0
2017-02-09T05:55:21.930Z,0
2017-02-09T05:57:34.299Z,0
2017-02-09T05:59:46.477Z,0
2017-02-09T06:01:58.972Z,0
2017-02-09T06:04:11.435Z,0
2017-02-09T06:06:23.776Z,0
2017-02-09T06:08:35.972Z,0
2017-02-09T06:10:48.406Z,0
2017-02-09T06:12:55.892Z,0
2017-02-09T06:15:08.065Z,0
2017-02-09T06:17:15.317Z,0
2017-02-09T06:19:27.923Z,0
2017-02-09T06:21:40.105Z,0
2017-02-09T06:23:52.370Z,0
2017-02-09T06:26:04.713Z,0
2017-02-09T06:28:17.097Z,0
2017-02-09T06:30:30.193Z,5
2017-02-09T06:32:42.508Z,5
2017-02-09T06:34:54.821Z,5
2017-02-09T06:37:07.238Z,5
2017-02-09T06:39:19.462Z,10
2017-02-09T06:41:31.921Z,10
2017-02-09T06:43:39.296Z,10
2017-02-09T06:45:51.600Z,10
2017-02-09T06:48:03.866Z,15
2017-02-09T06:50:06.360Z,20
2017-02-09T06:52:18.856Z,20
2017-02-09T06:54:31.412Z,20
2017-02-09T06:56:43.739Z,30
2017-02-09T06:58:56.090Z,30
2017-02-09T07:01:03.613Z,35
2017-02-09T07:03:16.098Z,35
2017-02-09T07:05:28.296Z,35
2017-02-09T07:07:40.661Z,50
2017-02-09T07:09:52.930Z,50
2017-02-09T07:12:05.387Z,60
2017-02-09T07:14:17.747Z,60
2017-02-09T07:16:30.132Z,60
2017-02-09T07:18:42.632Z,65
2017-02-09T07:20:55.079Z,65
2017-02-09T07:23:07.438Z,70
2017-02-09T07:25:19.823Z,80
2017-02-09T07:27:32.446Z,85
2017-02-09T07:29:44.818Z,90
2017-02-09T07:31:57.172Z,90
2017-02-09T07:34:09.396Z,105
2017-02-09T07:36:22.664Z,120
2017-02-09T07:38:34.941Z,125
2017-02-09T07:40:47.250Z,135
2017-02-09T07:42:59.671Z,145
2017-02-09T07:45:11.938Z,140
2017-02-09T07:47:24.372Z,150
2017-02-09T07:49:36.911Z,165
2017-02-09T07:51:44.263Z,160
2017-02-09T07:53:56.598Z,170
2017-02-09T07:56:08.910Z,165
2017-02-09T07:58:21.404Z,150
2017-02-09T08:00:33.900Z,160
2017-02-09T08:02:46.276Z,145
2017-02-09T08:04:58.809Z,150
2017-02-09T08:07:11.038Z,145
2017-02-09T08:09:23.237Z,160
2017-02-09T08:11:30.490Z,160
2017-02-09T08:13:43.112Z,155
2017-02-09T08:15:50.355Z,180
2017-02-09T08:18:02.915Z,160
2017-02-09T08:20:15.335Z,185
2017-02-09T08:22:27.690Z,200
2017-02-09T08:24:40.029Z,205
2017-02-09T08:26:52.745Z,225
2017-02-09T08:29:05.064Z,220
2017-02-09T08:31:12.549Z,225
2017-02-09T08:33:24.919Z,260
2017-02-09T08:35:37.177Z,285
2017-02-09T08:37:49.462Z,305
2017-02-09T08:39:56.794Z,355
2017-02-09T08:42:09.200Z,405
2017-02-09T08:44:21.656Z,385
2017-02-09T08:46:34.992Z,400
2017-02-09T08:48:47.470Z,415
2017-02-09T08:50:59.945Z,400
2017-02-09T08:53:12.347Z,425
2017-02-09T08:55:24.744Z,415
2017-02-09T08:57:38.056Z,365
2017-02-09T08:59:50.541Z,360
2017-02-09T09:02:02.968Z,360
2017-02-09T09:04:15.294Z,395
2017-02-09T09:06:27.709Z,435
2017-02-09T09:08:40.093Z,490
2017-02-09T09:10:52.473Z,475
2017-02-09T09:13:04.886Z,480
2017-02-09T09:15:12.437Z,580
2017-02-09T09:17:24.982Z,580
2017-02-09T09:19:37.445Z,520
2017-02-09T09:21:44.634Z,490
2017-02-09T09:23:57.103Z,505
2017-02-09T09:26:09.317Z,540
2017-02-09T09:28:16.619Z,540
2017-02-09T09:30:28.905Z,510
2017-02-09T09:32:41.221Z,515
2017-02-09T09:34:53.548Z,560
2017-02-09T09:37:00.847Z,595
2017-02-09T09:39:13.324Z,620
2017-02-09T09:41:20.829Z,615
2017-02-09T09:43:33.074Z,680
2017-02-09T09:45:45.274Z,690
2017-02-09T09:47:57.442Z,715
2017-02-09T09:50:09.716Z,740
2017-02-09T09:52:22.181Z,700
2017-02-09T09:54:34.534Z,815
2017-02-09T09:56:41.927Z,875
2017-02-09T09:58:54.425Z,875
2017-02-09T10:01:06.629Z,890
2017-02-09T10:03:18.830Z,890
2017-02-09T10:05:31.253Z,810
2017-02-09T10:07:43.402Z,725
2017-02-09T10:09:50.656Z,660
2017-02-09T10:11:57.917Z,800
2017-02-09T10:14:10.110Z,785
2017-02-09T10:16:22.390Z,870
2017-02-09T10:18:34.687Z,1330
2017-02-09T10:20:42.110Z,1135
2017-02-09T10:22:54.513Z,1060
2017-02-09T10:25:06.843Z,935
2017-02-09T10:27:19.306Z,925
2017-02-09T10:29:31.758Z,935
2017-02-09T10:31:44.169Z,980
2017-02-09T10:33:56.353Z,1090
2017-02-09T10:36:08.722Z,950
2017-02-09T10:38:20.948Z,1100
2017-02-09T10:40:33.212Z,1040
2017-02-09T10:42:40.415Z,1160
2017-02-09T10:44:52.657Z,840
2017-02-09T10:47:04.830Z,1025
2017-02-09T10:49:17.126Z,1130
2017-02-09T10:51:29.283Z,970
2017-02-09T10:53:41.674Z,1160
2017-02-09T10:55:53.944Z,965
2017-02-09T10:58:06.240Z,1885
2017-02-09T11:00:18.410Z,2055
2017-02-09T11:02:30.822Z,920
2017-02-09T11:04:38.141Z,780
2017-02-09T11:06:45.366Z,770
2017-02-09T11:08:57.608Z,820
2017-02-09T11:11:09.949Z,885
2017-02-09T11:13:22.134Z,925
2017-02-09T11:15:34.293Z,1000
2017-02-09T11:17:50.673Z,780
2017-02-09T11:20:11.559Z,830
2017-02-09T11:22:34.815Z,995
2017-02-09T11:24:47.052Z,885
2017-02-09T11:26:59.205Z,870
2017-02-09T11:29:11.479Z,780
2017-02-09T11:31:23.959Z,985
2017-02-09T11:33:36.106Z,925
2017-02-09T11:35:48.387Z,910
2017-02-09T11:38:00.527Z,890
2017-02-09T11:40:12.976Z,1125
2017-02-09T11:42:25.597Z,925
2017-02-09T11:44:37.981Z,845
2017-02-09T11:46:50.260Z,785
2017-02-09T11:49:02.639Z,840
2017-02-09T11:51:14.960Z,1025
2017-02-09T11:53:27.196Z,980
2017-02-09T11:55:39.466Z,1270
2017-02-09T11:57:51.953Z,2090
2017-02-09T12:00:04.364Z,1245
2017-02-09T12:02:11.856Z,1090
2017-02-09T12:04:19.246Z,1235
2017-02-09T12:06:31.515Z,1265
2017-02-09T12:08:44.018Z,950
2017-02-09T12:10:56.742Z,1445
2017-02-09T12:13:09.534Z,1025
2017-02-09T12:15:21.818Z,1445
2017-02-09T12:17:34.218Z,1530
2017-02-09T12:19:46.825Z,1295
2017-02-09T12:21:54.025Z,1080
2017-02-09T12:24:06.367Z,915
2017-02-09T12:26:13.717Z,860
2017-02-09T12:28:25.893Z,840
2017-02-09T12:30:40.686Z,775
2017-02-09T12:32:53.872Z,790
2017-02-09T12:35:08.205Z,800
2017-02-09T12:37:22.100Z,690
2017-02-09T12:39:35.784Z,690
2017-02-09T12:44:00.223Z,720
2017-02-09T12:46:12.690Z,665
2017-02-09T12:48:25.070Z,775
2017-02-09T12:50:37.388Z,790
2017-02-09T12:52:49.773Z,795
2017-02-09T12:55:02.478Z,795
2017-02-09T12:57:14.796Z,575
2017-02-09T12:59:27.471Z,525
2017-02-09T13:01:39.798Z,595
2017-02-09T13:03:52.182Z,530
2017-02-09T13:06:04.462Z,530
2017-02-09T13:08:17.015Z,545
2017-02-09T13:10:29.357Z,565
2017-02-09T13:12:41.681Z,590
2017-02-09T13:14:49.173Z,605
2017-02-09T13:17:01.515Z,615
2017-02-09T13:19:13.932Z,600
2017-02-09T13:21:26.309Z,605
2017-02-09T13:23:38.601Z,545
2017-02-09T13:25:51.066Z,460
2017-02-09T13:28:03.761Z,495
2017-02-09T13:30:16.077Z,515
2017-02-09T13:32:28.475Z,485
2017-02-09T13:34:40.788Z,475
2017-02-09T13:36:53.123Z,455
2017-02-09T13:39:05.513Z,420
2017-02-09T13:41:13.064Z,405
2017-02-09T13:43:25.371Z,385
2017-02-09T13:45:37.736Z,360
2017-02-09T13:47:50.208Z,370
2017-02-09T13:50:02.502Z,380
2017-02-09T13:52:14.959Z,375
2017-02-09T13:54:27.361Z,385
2017-02-09T13:56:39.650Z,405
2017-02-09T13:58:51.944Z,410
2017-02-09T14:01:04.290Z,400
2017-02-09T14:03:11.673Z,405
2017-02-09T14:05:24.092Z,390
2017-02-09T14:07:36.340Z,415
2017-02-09T14:09:48.531Z,370
2017-02-09T14:12:00.880Z,365
2017-02-09T14:14:08.284Z,340
2017-02-09T14:16:20.490Z,345
2017-02-09T14:18:32.693Z,345
2017-02-09T14:20:44.992Z,330
2017-02-09T14:22:57.172Z,315
2017-02-09T14:25:09.298Z,315
2017-02-09T14:27:21.583Z,315
2017-02-09T14:29:33.814Z,300
2017-02-09T14:31:46.034Z,300
2017-02-09T14:33:58.392Z,285
2017-02-09T14:36:10.688Z,250
2017-02-09T14:38:22.974Z,225
2017-02-09T14:40:30.150Z,210
2017-02-09T14:42:42.510Z,185
2017-02-09T14:44:54.859Z,190
2017-02-09T14:47:07.138Z,195
2017-02-09T14:49:19.496Z,215
2017-02-09T14:51:22.026Z,195
2017-02-09T14:53:34.631Z,185
2017-02-09T14:55:47.113Z,175
2017-02-09T14:57:59.339Z,155
2017-02-09T15:00:06.685Z,135
2017-02-09T15:02:18.884Z,130
2017-02-09T15:04:31.456Z,130
2017-02-09T15:06:45.407Z,125
2017-02-09T15:08:57.884Z,120
2017-02-09T15:11:10.134Z,110
2017-02-09T15:13:22.545Z,120
2017-02-09T15:15:34.978Z,120
2017-02-09T15:17:47.183Z,115
2017-02-09T15:19:59.603Z,115
2017-02-09T15:22:12.020Z,105
2017-02-09T15:24:24.292Z,95
2017-02-09T15:26:36.590Z,95
2017-02-09T15:28:43.829Z,80
2017-02-09T15:30:56.490Z,80
2017-02-09T15:33:03.964Z,75
2017-02-09T15:35:16.200Z,75
2017-02-09T15:37:28.486Z,70
2017-02-09T15:39:40.916Z,70
2017-02-09T15:41:53.246Z,65
2017-02-09T15:44:05.723Z,60
2017-02-09T15:46:13.080Z,55
2017-02-09T15:48:25.341Z,45
2017-02-09T15:50:37.611Z,45
2017-02-09T15:52:49.951Z,45
2017-02-09T15:55:02.167Z,40
2017-02-09T15:57:14.405Z,35
2017-02-09T15:59:26.765Z,30
2017-02-09T16:01:39.183Z,30
2017-02-09T16:03:51.526Z,25
2017-02-09T16:06:04.590Z,20
2017-02-09T16:08:16.893Z,20
2017-02-09T16:10:29.358Z,15
2017-02-09T16:12:41.852Z,15
2017-02-09T16:14:54.118Z,10
2017-02-09T16:17:01.486Z,10
2017-02-09T16:19:13.668Z,10
2017-02-09T16:21:25.939Z,5
2017-02-09T16:23:38.114Z,5
2017-02-09T16:25:50.405Z,5
2017-02-09T16:28:02.756Z,5
2017-02-09T16:30:15.032Z,0
2017-02-09T16:32:27.325Z,0
2017-02-09T16:34:39.598Z,0
2017-02-09T16:36:51.900Z,0
2017-02-09T16:39:05.013Z,0
2017-02-09T16:41:17.357Z,0
2017-02-09T16:43:29.723Z,0
2017-02-09T16:45:42.029Z,0
2017-02-09T16:47:54.317Z,0
2017-02-09T16:50:01.673Z,0
2017-02-09T16:52:14.066Z,0
2017-02-09T16:54:26.477Z,0
2017-02-09T16:56:38.922Z,0
2017-02-09T16:58:51.385Z,0
2017-02-09T17:01:04.044Z,0
2017-02-09T17:03:16.463Z,0
2017-02-09T17:05:28.796Z,0
2017-02-09T17:07:41.000Z,0
2017-02-09T17:09:53.224Z,0
2017-02-09T17:12:05.593Z,0
2017-02-09T17:14:17.885Z,0
2017-02-09T17:16:30.241Z,0
2017-02-09T17:18:37.542Z,0
2017-02-09T17:20:49.987Z,0
2017-02-09T17:23:02.438Z,0
2017-02-09T17:25:14.909Z,0
2017-02-09T17:27:27.329Z,0
2017-02-09T17:29:39.623Z,0
2017-02-09T17:31:52.366Z,0
2017-02-09T17:34:04.888Z,0
2017-02-09T17:36:17.102Z,0
2017-02-09T17:38:24.597Z,0
2017-02-09T17:40:37.128Z,0
2017-02-09T17:42:49.487Z,0
2017-02-09T17:45:01.800Z,0
2017-02-09T17:47:14.281Z,0
2017-02-09T17:49:26.582Z,0
2017-02-09T17:51:38.941Z,0
2017-02-09T17:53:46.248Z,0
2017-02-09T17:55:58.656Z,0
2017-02-09T17:58:10.943Z,0
2017-02-09T18:00:23.319Z,0
2017-02-09T18:02:35.556Z,0
2017-02-09T18:04:47.768Z,0
2017-02-09T18:07:00.226Z,0
2017-02-09T18:09:12.442Z,0
2017-02-09T18:11:25.753Z,0
2017-02-09T18:13:38.099Z,0
2017-02-09T18:15:50.502Z,0
2017-02-09T18:18:02.893Z,0
2017-02-09T18:20:10.136Z,0
2017-02-09T18:22:22.493Z,0
2017-02-09T18:24:34.824Z,0
2017-02-09T18:26:47.162Z,0
2017-02-09T18:28:54.902Z,0
2017-02-09T18:31:02.510Z,0
2017-02-09T18:33:14.903Z,0
2017-02-09T18:35:27.370Z,0
2017-02-09T18:37:39.756Z,0
2017-02-09T18:39:52.159Z,0
2017-02-09T18:42:04.614Z,0
2017-02-09T18:44:17.069Z,0
2017-02-09T18:46:29.471Z,0
2017-02-09T18:48:41.892Z,0
2017-02-09T18:50:54.265Z,0
2017-02-09T18:53:06.670Z,0
2017-02-09T18:55:19.153Z,0
2017-02-09T18:57:31.391Z,0
2017-02-09T18:59:43.613Z,0
2017-02-09T19:01:55.945Z,0
2017-02-09T19:04:08.355Z,0
2017-02-09T19:06:20.716Z,0
2017-02-09T19:08:32.951Z,0
2017-02-09T19:10:45.421Z,0
2017-02-09T19:12:58.057Z,0
2017-02-09T19:15:10.269Z,0
2017-02-09T19:17:22.557Z,0
2017-02-09T19:19:29.760Z,0
2017-02-09T19:21:41.934Z,0
2017-02-09T19:23:54.135Z,0
2017-02-09T19:26:06.467Z,0
2017-02-09T19:28:18.848Z,0
2017-02-09T19:30:31.114Z,0
2017-02-09T19:32:43.512Z,0
2017-02-09T19:34:56.035Z,0
2017-02-09T19:37:08.377Z,0
2017-02-09T19:39:20.707Z,0
2017-02-09T19:41:32.931Z,0
2017-02-09T19:43:45.300Z,0
2017-02-09T19:45:57.801Z,0
2017-02-09T19:48:05.405Z,0
2017-02-09T19:50:18.060Z,0
2017-02-09T19:52:30.639Z,0
2017-02-09T19:54:42.920Z,0
2017-02-09T19:56:55.561Z,0
2017-02-09T19:59:08.065Z,0
2017-02-09T20:01:20.573Z,0
2017-02-09T20:03:32.898Z,0
2017-02-09T20:05:45.221Z,0
2017-02-09T20:07:52.817Z,0
2017-02-09T20:10:05.020Z,0
2017-02-09T20:12:17.752Z,0
2017-02-09T20:14:30.586Z,0
2017-02-09T20:17:00.400Z,0
2017-02-09T20:19:12.725Z,0
2017-02-09T20:21:25.371Z,0
2017-02-09T20:23:37.919Z,0
2017-02-09T20:25:50.599Z,0
2017-02-09T20:28:03.187Z,0
2017-02-09T20:30:15.710Z,0
2017-02-09T20:32:28.221Z,0
2017-02-09T20:34:40.735Z,0
2017-02-09T20:36:53.152Z,0
2017-02-09T20:39:05.574Z,0
2017-02-09T20:41:18.039Z,0
2017-02-09T20:43:30.335Z,0
2017-02-09T20:45:42.613Z,0
2017-02-09T20:47:55.016Z,0
2017-02-09T20:50:07.474Z,0
2017-02-09T20:52:19.884Z,0
2017-02-09T20:54:32.555Z,0
2017-02-09T20:56:45.305Z,0
2017-02-09T20:58:57.959Z,0
2017-02-09T21:01:10.529Z,0
2017-02-09T21:03:23.028Z,0
2017-02-09T21:05:35.330Z,0
2017-02-09T21:07:47.909Z,0
2017-02-09T21:10:00.118Z,0
2017-02-09T21:12:12.659Z,0
2017-02-09T21:14:25.000Z,0
2017-02-09T21:16:37.362Z,0
2017-02-09T21:18:49.605Z,0
2017-02-09T21:21:02.025Z,0
2017-02-09T21:23:14.508Z,0
2017-02-09T21:25:26.943Z,0
2017-02-09T21:27:39.352Z,0
2017-02-09T21:29:52.035Z,0
2017-02-09T21:31:59.350Z,0
2017-02-09T21:34:11.761Z,0
2017-02-09T21:36:24.178Z,0
2017-02-09T21:38:26.725Z,0
2017-02-09T21:40:38.971Z,0
2017-02-09T21:42:51.368Z,0
2017-02-09T21:45:03.592Z,0
2017-02-09T21:47:16.072Z,0
2017-02-09T21:49:28.375Z,0
2017-02-09T21:51:41.279Z,0
2017-02-09T21:53:53.700Z,0
2017-02-09T21:56:08.055Z,0
2017-02-09T21:58:20.300Z,0
2017-02-09T22:00:32.611Z,0
2017-02-09T22:02:45.059Z,0
2017-02-09T22:04:47.399Z,0
2017-02-09T22:06:59.868Z,0
2017-02-09T22:09:12.107Z,0
2017-02-09T22:11:25.319Z,0
2017-02-09T22:13:37.693Z,0
2017-02-09T22:15:50.110Z,0
2017-02-09T22:18:02.426Z,0
2017-02-09T22:20:14.697Z,0
2017-02-09T22:22:26.921Z,0
2017-02-09T22:24:39.181Z,0
2017-02-09T22:26:51.485Z,0
2017-02-09T22:29:03.838Z,0
2017-02-09T22:31:16.069Z,0
2017-02-09T22:33:28.547Z,0
2017-02-09T22:35:40.965Z,0
2017-02-09T22:37:53.340Z,0
2017-02-09T22:40:05.676Z,0
2017-02-09T22:42:18.240Z,0
2017-02-09T22:44:30.568Z,0
2017-02-09T22:46:42.983Z,0
2017-02-09T22:48:55.373Z,0
2017-02-09T22:51:02.687Z,0
2017-02-09T22:53:15.024Z,0
2017-02-09T22:55:27.302Z,0
2017-02-09T22:57:39.560Z,0
2017-02-09T22:59:52.052Z,0
2017-02-09T23:02:04.412Z,0
2017-02-09T23:04:16.978Z,0
2017-02-09T23:06:29.365Z,0
2017-02-09T23:08:41.821Z,0
2017-02-09T23:10:54.255Z,0
2017-02-09T23:13:06.663Z,0
2017-02-09T23:15:19.294Z,0
2017-02-09T23:17:31.624Z,0
2017-02-09T23:19:43.810Z,0
2017-02-09T23:21:56.208Z,0
2017-02-09T23:24:08.596Z,0
2017-02-09T23:26:20.795Z,0
2017-02-09T23:28:33.057Z,0
2017-02-09T23:30:45.457Z,0
2017-02-09T23:32:57.883Z,0
2017-02-09T23:35:05.224Z,0
2017-02-09T23:37:12.384Z,0
2017-02-09T23:39:24.572Z,0
2017-02-09T23:41:36.920Z,0
2017-02-09T23:43:49.203Z,0
2017-02-09T23:46:01.565Z,0
2017-02-09T23:48:13.769Z,0
2017-02-09T23:50:26.419Z,0
2017-02-09T23:52:38.783Z,0
2017-02-09T23:54:50.958Z,0
2017-02-09T23:57:03.300Z,0
2017-02-09T23:59:15.470Z,0
